Farmington, New York
Current Conditions -  °F | °C
As of 11:54 AM on Thursday 27 Nov 2014 (Local Time) from KROC Reporting Station
Overcast Overcast  
Wind Chill: 24°   Ceiling: 4000
Heat Index: 31°   Visibility: 10mi
Dew Point: 24°   Wind: 7mph
Humidity: 76%   Direction: 300°WNW
Pressure: 30.05"   Gusts: NA
Location:  43.03°N, 77.33°W
Report Text: KROC 271654Z 30006KT 10SM SCT020 BKN040 OVC070 M01/M04 A3005 RMK AO2 SLP186 T10061044
Loading
Personal Weather Stations






























Interactive Weather Map New forecast layout! Learn more

10-Day Weather Forecast

Advertisements
Track Severe Weather on mobile